Time;durP1;ratioP1;P1;durP2;ratioP2;P2;SDS_P1;SDS_P2;PMS_P1;PMS_P2;Temp;Humidity;BMP_temperature;BMP_pressure;BME280_temperature;BME280_humidity;BME280_pressure;Samples;Min_cycle;Max_cycle;Signal;HPM_P1;HPM_P2
2023/05/15 00:00:09;;;;;;;11.70;9.18;;;12.50;99.90;;;;;;4941132;28;20431;-72
2023/05/15 00:02:45;;;;;;;12.45;10.02;;;12.50;99.90;;;;;;4950875;28;20030;-73
2023/05/15 00:05:12;;;;;;;16.80;13.07;;;12.50;99.90;;;;;;4951627;28;21117;-73
2023/05/15 00:07:39;;;;;;;16.02;12.82;;;12.40;99.90;;;;;;4951495;28;20709;-73
2023/05/15 00:10:07;;;;;;;12.52;11.23;;;12.40;99.90;;;;;;4949371;28;20045;-72
2023/05/15 00:12:33;;;;;;;11.93;10.63;;;12.40;99.90;;;;;;4962100;28;20054;-73
2023/05/15 00:15:00;;;;;;;13.68;10.25;;;12.30;99.90;;;;;;4958575;28;20387;-73
2023/05/15 00:17:26;;;;;;;13.15;10.95;;;12.30;99.90;;;;;;4971042;28;20050;-72
2023/05/15 00:19:56;;;;;;;14.05;10.95;;;12.30;99.90;;;;;;4941724;28;20038;-73
2023/05/15 00:22:23;;;;;;;11.23;9.32;;;12.20;99.90;;;;;;4953169;28;20482;-73
2023/05/15 00:24:49;;;;;;;12.13;10.85;;;12.20;99.90;;;;;;4951712;28;20034;-72
2023/05/15 00:27:15;;;;;;;16.13;12.88;;;12.20;99.90;;;;;;4952173;28;20137;-73
2023/05/15 00:29:41;;;;;;;13.85;10.40;;;12.20;99.90;;;;;;4943386;28;20034;-73
2023/05/15 00:32:08;;;;;;;13.27;11.05;;;12.10;99.90;;;;;;4958564;28;20031;-73
2023/05/15 00:34:34;;;;;;;15.07;11.50;;;12.10;99.90;;;;;;4959308;28;20397;-73
2023/05/15 00:37:00;;;;;;;15.63;12.05;;;12.00;99.90;;;;;;4962047;28;20046;-73
2023/05/15 00:39:27;;;;;;;14.82;12.82;;;12.00;99.90;;;;;;4943386;28;20039;-72
2023/05/15 00:41:55;;;;;;;11.63;9.40;;;12.00;99.90;;;;;;4950286;28;20039;-73
2023/05/15 00:44:24;;;;;;;11.88;9.95;;;12.00;99.90;;;;;;4934677;28;20038;-73
2023/05/15 00:46:52;;;;;;;14.88;12.38;;;11.90;99.90;;;;;;4952832;28;20061;-72
2023/05/15 00:49:21;;;;;;;18.60;11.95;;;11.90;99.90;;;;;;4927431;28;20827;-72
2023/05/15 00:51:47;;;;;;;13.88;11.48;;;11.90;99.90;;;;;;4951774;28;20049;-72
2023/05/15 00:54:14;;;;;;;13.15;11.13;;;11.90;99.90;;;;;;4976391;28;20033;-73
2023/05/15 00:56:43;;;;;;;15.30;10.45;;;11.90;99.90;;;;;;4962537;28;20512;-72
2023/05/15 00:59:12;;;;;;;14.73;11.55;;;11.80;99.90;;;;;;4949641;28;20046;-72
2023/05/15 01:01:38;;;;;;;11.32;9.63;;;11.80;99.90;;;;;;4964429;28;20583;-72
2023/05/15 01:04:04;;;;;;;14.23;10.63;;;11.80;99.90;;;;;;4935191;28;20393;-72
2023/05/15 01:06:31;;;;;;;12.75;10.43;;;11.70;99.90;;;;;;4953340;28;20041;-72
2023/05/15 01:09:02;;;;;;;12.38;10.20;;;11.70;99.90;;;;;;4932989;28;20038;-73
2023/05/15 01:11:34;;;;;;;12.80;9.38;;;11.70;99.90;;;;;;4929860;28;23188;-71
2023/05/15 01:14:05;;;;;;;14.27;12.25;;;11.60;99.90;;;;;;4974248;28;20058;-72
2023/05/15 01:16:33;;;;;;;12.82;10.95;;;11.60;99.90;;;;;;4959080;28;20054;-72
2023/05/15 01:19:03;;;;;;;12.27;10.82;;;11.50;99.90;;;;;;4954776;28;20141;-72
2023/05/15 01:21:36;;;;;;;12.20;10.13;;;11.60;99.90;;;;;;4950339;28;20125;-73
2023/05/15 01:24:28;;;;;;;12.85;10.50;;;11.50;99.90;;;;;;4953863;28;20059;-73
2023/05/15 01:27:01;;;;;;;14.18;9.93;;;11.50;99.90;;;;;;4951234;28;20499;-72
2023/05/15 01:29:40;;;;;;;12.30;10.73;;;11.50;99.90;;;;;;4944519;28;20041;-72
2023/05/15 01:32:13;;;;;;;12.63;10.40;;;11.40;99.90;;;;;;4953587;28;20393;-73
2023/05/15 01:34:50;;;;;;;10.95;8.98;;;11.40;99.90;;;;;;4952594;28;20042;-72
2023/05/15 01:37:21;;;;;;;15.65;11.13;;;11.40;99.90;;;;;;4959997;28;20045;-72
2023/05/15 01:39:52;;;;;;;11.45;10.23;;;11.30;99.90;;;;;;4949849;28;20568;-72
2023/05/15 01:42:20;;;;;;;11.43;10.20;;;11.30;99.90;;;;;;4955752;28;20035;-72
2023/05/15 01:44:54;;;;;;;13.02;11.65;;;11.30;99.90;;;;;;4950842;28;20053;-72
2023/05/15 01:47:26;;;;;;;12.23;9.32;;;11.30;99.90;;;;;;4952068;28;20042;-72
2023/05/15 01:49:56;;;;;;;13.23;11.80;;;11.30;99.90;;;;;;4942085;28;20030;-73
2023/05/15 01:52:33;;;;;;;12.57;11.38;;;11.30;99.90;;;;;;4951974;28;20314;-72
2023/05/15 01:55:06;;;;;;;16.20;11.88;;;11.20;99.90;;;;;;4956005;28;20064;-72
2023/05/15 01:57:34;;;;;;;15.90;12.25;;;11.20;99.90;;;;;;4960569;28;20041;-73
2023/05/15 02:00:02;;;;;;;16.15;12.60;;;11.20;99.90;;;;;;4948925;28;20042;-72
2023/05/15 02:02:30;;;;;;;18.83;14.95;;;11.20;99.90;;;;;;4935612;28;20734;-72
2023/05/15 02:04:57;;;;;;;17.88;14.77;;;11.20;99.90;;;;;;4951988;28;20038;-72
2023/05/15 02:07:24;;;;;;;14.38;11.85;;;11.20;99.90;;;;;;4950699;28;20045;-72
2023/05/15 02:09:52;;;;;;;18.75;14.85;;;11.10;99.90;;;;;;4940848;28;20050;-72
2023/05/15 02:12:19;;;;;;;16.52;13.90;;;11.10;99.90;;;;;;4951944;28;20050;-72
2023/05/15 02:14:49;;;;;;;17.58;12.63;;;11.10;99.90;;;;;;4939229;28;20039;-72
2023/05/15 02:17:15;;;;;;;15.65;13.10;;;11.10;99.90;;;;;;4958758;28;20038;-72
2023/05/15 02:19:41;;;;;;;16.73;13.40;;;11.10;99.90;;;;;;4946252;28;20394;-72
2023/05/15 02:22:09;;;;;;;18.85;15.15;;;11.00;99.90;;;;;;4936134;28;20401;-72
2023/05/15 02:24:35;;;;;;;15.77;14.10;;;11.10;99.90;;;;;;4949815;28;20038;-72
2023/05/15 02:27:25;;;;;;;14.60;12.52;;;11.10;99.90;;;;;;4951553;28;20049;-72
2023/05/15 02:30:11;;;;;;;14.65;13.07;;;11.10;99.90;;;;;;4940713;28;20038;-72
2023/05/15 02:33:05;;;;;;;15.32;13.70;;;11.10;99.90;;;;;;4965118;28;20034;-72
2023/05/15 02:35:56;;;;;;;16.40;14.27;;;11.00;99.90;;;;;;4957502;28;20472;-72
2023/05/15 02:38:29;;;;;;;19.45;15.05;;;11.00;99.90;;;;;;4960263;28;20476;-72
2023/05/15 02:40:59;;;;;;;15.32;12.30;;;11.00;99.90;;;;;;4947854;28;20041;-72
2023/05/15 02:43:26;;;;;;;17.48;14.48;;;11.00;99.90;;;;;;4951336;28;20485;-72
2023/05/15 02:45:55;;;;;;;19.25;13.95;;;11.00;99.90;;;;;;4949791;28;21280;-72
2023/05/15 02:48:21;;;;;;;15.05;11.93;;;11.00;99.90;;;;;;4951655;28;20034;-72
2023/05/15 02:50:48;;;;;;;15.98;13.13;;;10.90;99.90;;;;;;4940617;28;20077;-74
2023/05/15 02:53:15;;;;;;;20.50;16.13;;;10.90;99.90;;;;;;4951192;28;20038;-73
2023/05/15 02:55:41;;;;;;;14.80;12.35;;;10.90;99.90;;;;;;4952184;28;20216;-72
2023/05/15 02:58:08;;;;;;;15.00;12.52;;;10.90;99.90;;;;;;4960677;28;20513;-72
2023/05/15 03:00:34;;;;;;;13.43;11.95;;;10.90;99.90;;;;;;4949353;28;20053;-72
2023/05/15 03:03:00;;;;;;;16.42;13.38;;;10.90;99.90;;;;;;4953833;28;20026;-73
2023/05/15 03:05:27;;;;;;;13.95;11.50;;;10.90;99.90;;;;;;4950683;28;20407;-72
2023/05/15 03:07:53;;;;;;;18.08;15.05;;;10.80;99.90;;;;;;4966525;28;20031;-72
2023/05/15 03:10:22;;;;;;;13.77;12.32;;;10.90;99.90;;;;;;4941068;28;22196;-72
2023/05/15 03:12:49;;;;;;;15.93;12.65;;;10.80;99.90;;;;;;4951995;28;20042;-72
2023/05/15 03:15:15;;;;;;;17.65;15.25;;;10.80;99.90;;;;;;4939875;28;20042;-72
2023/05/15 03:17:41;;;;;;;12.80;11.48;;;10.80;99.90;;;;;;4961388;28;20039;-72
2023/05/15 03:20:08;;;;;;;20.02;15.25;;;10.80;99.90;;;;;;4949596;28;20035;-73
2023/05/15 03:22:34;;;;;;;15.45;13.60;;;10.80;99.90;;;;;;4974278;28;20046;-72
2023/05/15 03:25:00;;;;;;;16.35;14.40;;;10.80;99.90;;;;;;4953402;28;20037;-72
2023/05/15 03:27:27;;;;;;;19.75;14.05;;;10.80;99.90;;;;;;4954259;28;20771;-72
2023/05/15 03:29:53;;;;;;;26.13;18.63;;;10.80;99.90;;;;;;4945029;28;20053;-72
2023/05/15 03:32:20;;;;;;;21.83;16.92;;;10.80;99.90;;;;;;4971295;28;20035;-72
2023/05/15 03:34:46;;;;;;;22.60;17.67;;;10.80;99.90;;;;;;4953186;28;20569;-72
2023/05/15 03:37:12;;;;;;;22.40;18.02;;;10.80;99.90;;;;;;4956877;28;20053;-72
2023/05/15 03:39:38;;;;;;;20.60;15.45;;;10.70;99.90;;;;;;4954809;28;20038;-72
2023/05/15 03:42:05;;;;;;;18.73;16.65;;;10.80;99.90;;;;;;4959937;28;20042;-72
2023/05/15 03:44:32;;;;;;;20.02;16.60;;;10.80;99.90;;;;;;4938697;28;20042;-72
2023/05/15 03:46:58;;;;;;;19.83;15.38;;;10.90;99.90;;;;;;4955420;28;20045;-72
2023/05/15 03:49:24;;;;;;;22.80;16.88;;;11.00;99.90;;;;;;4947085;28;20547;-72
2023/05/15 03:51:51;;;;;;;28.10;19.83;;;11.10;99.90;;;;;;4953062;28;20430;-72
2023/05/15 03:54:17;;;;;;;20.92;16.08;;;11.10;99.90;;;;;;4938805;28;20034;-72
2023/05/15 03:56:43;;;;;;;16.70;13.43;;;11.10;99.90;;;;;;4973014;28;20053;-72
2023/05/15 03:59:10;;;;;;;27.58;18.80;;;11.10;99.90;;;;;;4953419;28;20051;-72
2023/05/15 04:01:36;;;;;;;21.45;18.40;;;11.10;99.90;;;;;;4955450;28;20042;-73
2023/05/15 04:04:02;;;;;;;25.13;19.73;;;11.10;99.90;;;;;;4956467;28;20038;-73
2023/05/15 04:06:28;;;;;;;26.58;20.13;;;11.10;99.90;;;;;;4950233;28;20042;-72
2023/05/15 04:08:55;;;;;;;23.10;18.95;;;11.10;99.90;;;;;;4944245;28;21690;-72
2023/05/15 04:11:22;;;;;;;20.98;16.20;;;11.20;99.90;;;;;;4941215;28;20049;-72
2023/05/15 04:13:48;;;;;;;24.83;19.77;;;11.20;99.90;;;;;;4947653;28;20061;-73
2023/05/15 04:16:15;;;;;;;25.45;19.70;;;11.30;99.90;;;;;;4949863;28;20053;-73
2023/05/15 04:18:41;;;;;;;17.27;14.65;;;11.30;99.90;;;;;;4948371;28;20061;-72
2023/05/15 04:21:07;;;;;;;27.00;19.38;;;11.40;99.90;;;;;;4940303;28;20042;-73
2023/05/15 04:23:33;;;;;;;22.65;17.23;;;11.40;99.90;;;;;;4951047;28;20034;-72
2023/05/15 04:26:00;;;;;;;22.58;19.08;;;11.50;99.90;;;;;;4956784;28;20046;-73
2023/05/15 04:28:26;;;;;;;24.85;18.67;;;11.50;99.90;;;;;;4957780;28;20038;-73
2023/05/15 04:30:52;;;;;;;26.40;19.73;;;11.50;99.90;;;;;;4941938;28;20038;-72
2023/05/15 04:33:19;;;;;;;24.80;19.90;;;11.50;99.90;;;;;;4962714;28;20042;-72
2023/05/15 04:35:46;;;;;;;19.20;16.75;;;11.50;99.90;;;;;;4950366;28;20047;-73
2023/05/15 04:38:13;;;;;;;22.58;18.35;;;11.60;99.90;;;;;;4932323;28;20042;-72
2023/05/15 04:40:39;;;;;;;23.25;19.33;;;11.60;99.90;;;;;;4920457;28;20053;-73
2023/05/15 04:43:05;;;;;;;24.15;18.10;;;11.70;99.90;;;;;;4934736;28;20783;-73
2023/05/15 04:45:32;;;;;;;23.92;17.42;;;11.70;99.90;;;;;;4960458;28;20046;-73
2023/05/15 04:47:58;;;;;;;26.30;20.40;;;11.80;99.90;;;;;;4972946;28;20034;-73
2023/05/15 04:50:24;;;;;;;21.17;17.30;;;11.80;99.90;;;;;;4941619;28;20038;-76
2023/05/15 04:52:51;;;;;;;21.38;16.92;;;11.90;99.90;;;;;;4949094;28;20177;-73
2023/05/15 04:55:17;;;;;;;19.52;16.13;;;12.00;99.90;;;;;;4953518;28;20719;-74
2023/05/15 04:57:45;;;;;;;25.95;18.77;;;12.00;99.90;;;;;;4948381;28;20046;-74
2023/05/15 05:00:13;;;;;;;23.20;17.88;;;12.10;99.90;;;;;;4925008;28;20496;-74
2023/05/15 05:02:40;;;;;;;26.17;21.92;;;12.10;99.90;;;;;;4952253;28;20042;-74
2023/05/15 05:05:07;;;;;;;28.42;21.58;;;12.20;99.90;;;;;;4951043;28;20046;-76
2023/05/15 05:07:34;;;;;;;34.63;24.20;;;12.20;99.90;;;;;;4958883;28;20033;-72
2023/05/15 05:10:01;;;;;;;26.23;21.13;;;12.20;99.90;;;;;;4950352;28;20710;-73
2023/05/15 05:12:28;;;;;;;23.13;18.70;;;12.30;99.90;;;;;;4966897;28;20049;-71
2023/05/15 05:14:55;;;;;;;18.23;14.85;;;12.30;99.90;;;;;;4968492;28;20041;-71
2023/05/15 05:17:22;;;;;;;23.55;16.52;;;12.30;99.90;;;;;;4949992;28;20039;-72
2023/05/15 05:19:48;;;;;;;23.35;19.17;;;12.40;99.90;;;;;;4940865;28;21717;-72
2023/05/15 05:22:14;;;;;;;25.85;20.50;;;12.50;99.90;;;;;;4950797;28;20042;-71
2023/05/15 05:24:40;;;;;;;20.20;16.30;;;12.50;99.90;;;;;;4949367;28;20038;-71
2023/05/15 05:27:07;;;;;;;21.67;17.73;;;12.50;99.90;;;;;;4953249;28;20466;-71
2023/05/15 05:29:33;;;;;;;26.30;20.42;;;12.50;99.90;;;;;;4950247;28;20439;-72
2023/05/15 05:32:00;;;;;;;25.92;21.52;;;12.60;99.90;;;;;;4959945;28;20467;-72
2023/05/15 05:34:26;;;;;;;21.02;18.30;;;12.60;99.90;;;;;;4954911;28;20448;-72
2023/05/15 05:36:52;;;;;;;26.75;22.10;;;12.70;99.90;;;;;;4949845;28;20127;-71
2023/05/15 05:39:19;;;;;;;19.58;16.02;;;12.70;99.90;;;;;;4927385;28;20194;-71
2023/05/15 05:41:46;;;;;;;21.90;16.75;;;12.80;99.90;;;;;;4951787;28;20042;-72
2023/05/15 05:44:12;;;;;;;22.77;18.40;;;13.00;99.90;;;;;;4948260;28;20418;-71
2023/05/15 05:46:38;;;;;;;19.40;16.42;;;13.10;99.90;;;;;;4949644;28;20042;-71
2023/05/15 05:49:05;;;;;;;18.35;16.05;;;13.10;99.90;;;;;;4953010;28;20035;-72
2023/05/15 05:51:31;;;;;;;23.73;19.33;;;13.10;99.90;;;;;;4956734;28;20033;-72
2023/05/15 05:53:57;;;;;;;20.33;14.75;;;13.10;99.90;;;;;;4959859;28;20034;-72
2023/05/15 05:56:23;;;;;;;14.75;12.32;;;13.10;99.90;;;;;;4952888;28;20413;-71
2023/05/15 05:58:50;;;;;;;21.48;16.08;;;13.10;99.90;;;;;;4952000;28;20477;-71
2023/05/15 06:01:16;;;;;;;17.83;14.50;;;13.10;99.90;;;;;;4947866;28;20747;-72
2023/05/15 06:03:42;;;;;;;18.38;15.27;;;13.10;99.90;;;;;;4950804;28;20274;-72
2023/05/15 06:06:09;;;;;;;23.17;19.45;;;13.20;99.90;;;;;;4950536;28;20405;-71
2023/05/15 06:08:35;;;;;;;25.42;20.63;;;13.30;99.90;;;;;;4951725;28;20041;-71
2023/05/15 06:11:02;;;;;;;18.05;14.50;;;13.40;99.90;;;;;;4946826;28;20029;-72
2023/05/15 06:13:29;;;;;;;16.45;13.75;;;13.60;99.90;;;;;;4958513;28;20058;-71
2023/05/15 06:15:56;;;;;;;18.33;15.18;;;13.90;99.90;;;;;;4955744;28;20026;-72
2023/05/15 06:18:22;;;;;;;14.98;12.82;;;14.10;99.90;;;;;;4948287;28;20026;-71
2023/05/15 06:20:49;;;;;;;14.25;11.30;;;14.20;99.90;;;;;;4940326;28;20046;-71
2023/05/15 06:23:15;;;;;;;15.13;12.88;;;14.40;99.90;;;;;;4951817;28;20147;-72
2023/05/15 06:25:41;;;;;;;22.15;16.55;;;14.50;99.90;;;;;;4952743;28;20030;-71
2023/05/15 06:28:08;;;;;;;13.02;11.75;;;14.80;99.90;;;;;;4952455;28;20489;-71
2023/05/15 06:30:34;;;;;;;15.23;13.55;;;15.00;99.90;;;;;;4947217;28;20045;-72
2023/05/15 06:33:00;;;;;;;13.60;12.13;;;15.40;99.90;;;;;;4958559;28;20030;-71
2023/05/15 06:35:27;;;;;;;15.65;14.05;;;15.70;99.90;;;;;;4956213;28;20045;-72
2023/05/15 06:37:53;;;;;;;14.70;11.35;;;16.00;99.90;;;;;;4950850;28;20366;-72
2023/05/15 06:40:20;;;;;;;14.93;11.82;;;16.20;99.90;;;;;;4943805;28;20050;-72
2023/05/15 06:42:46;;;;;;;11.32;10.05;;;16.20;99.90;;;;;;4934008;28;20481;-72
2023/05/15 06:45:12;;;;;;;9.95;8.80;;;16.20;99.90;;;;;;4953715;28;20187;-71
2023/05/15 06:47:39;;;;;;;10.68;9.57;;;16.30;99.90;;;;;;4953217;28;20041;-71
2023/05/15 06:50:05;;;;;;;9.63;8.63;;;16.40;99.90;;;;;;4962311;28;20477;-72
2023/05/15 06:52:32;;;;;;;11.20;9.23;;;16.60;99.90;;;;;;4960964;28;20022;-71
2023/05/15 06:54:58;;;;;;;11.48;9.35;;;16.70;99.90;;;;;;4959322;28;20904;-72
2023/05/15 06:57:25;;;;;;;8.70;7.85;;;16.80;99.90;;;;;;4956095;28;20030;-72
2023/05/15 06:59:51;;;;;;;11.80;9.35;;;16.80;99.90;;;;;;4941937;28;20043;-71
2023/05/15 07:02:18;;;;;;;9.57;8.07;;;16.60;99.90;;;;;;4953774;28;20034;-72
2023/05/15 07:04:44;;;;;;;9.00;6.93;;;16.50;99.90;;;;;;4950868;28;20038;-71
2023/05/15 07:07:10;;;;;;;11.50;9.23;;;16.30;99.90;;;;;;4953698;28;20442;-71
2023/05/15 07:09:36;;;;;;;6.20;5.28;;;16.10;99.90;;;;;;4941691;28;20394;-71
2023/05/15 07:12:03;;;;;;;8.13;7.30;;;15.90;99.90;;;;;;4960689;28;20042;-71
2023/05/15 07:14:29;;;;;;;10.80;9.10;;;15.70;99.90;;;;;;4942711;28;20042;-71
2023/05/15 07:16:55;;;;;;;11.32;9.93;;;15.60;99.90;;;;;;4955328;28;20030;-71
2023/05/15 07:19:22;;;;;;;7.72;7.03;;;15.50;99.90;;;;;;4944945;28;21235;-71
2023/05/15 07:21:48;;;;;;;11.40;10.27;;;15.50;99.90;;;;;;4948190;28;20466;-71
2023/05/15 07:24:14;;;;;;;11.27;8.27;;;15.50;99.90;;;;;;4950671;28;20026;-72
2023/05/15 07:26:40;;;;;;;12.43;11.15;;;15.60;99.90;;;;;;4951588;28;20038;-71
2023/05/15 07:29:07;;;;;;;15.82;14.13;;;15.80;99.90;;;;;;4946013;28;21569;-71
2023/05/15 07:31:33;;;;;;;11.55;8.82;;;15.90;99.90;;;;;;4952770;28;22191;-72
2023/05/15 07:33:59;;;;;;;9.63;8.65;;;16.00;99.90;;;;;;4960353;28;20049;-72
2023/05/15 07:36:26;;;;;;;9.15;8.25;;;16.30;99.90;;;;;;4973552;28;20459;-72
2023/05/15 07:38:52;;;;;;;7.75;6.95;;;16.60;99.90;;;;;;4947620;28;20045;-72
2023/05/15 07:41:18;;;;;;;10.55;9.18;;;16.80;99.90;;;;;;4944267;28;20046;-71
2023/05/15 07:43:45;;;;;;;8.73;6.28;;;17.10;99.90;;;;;;4951649;28;20031;-72
2023/05/15 07:46:11;;;;;;;10.50;9.50;;;17.30;99.90;;;;;;4967238;28;20050;-72
2023/05/15 07:48:37;;;;;;;16.52;12.10;;;17.60;99.90;;;;;;4950928;28;20030;-71
2023/05/15 07:51:04;;;;;;;12.38;9.85;;;17.80;99.90;;;;;;4948002;28;20042;-72
2023/05/15 07:53:32;;;;;;;11.10;9.98;;;17.90;99.90;;;;;;4976981;28;20038;-71
2023/05/15 07:55:58;;;;;;;9.55;7.93;;;18.00;99.90;;;;;;4955863;28;20049;-71
2023/05/15 07:58:25;;;;;;;8.15;7.30;;;18.10;99.90;;;;;;4952892;28;20050;-72
2023/05/15 08:00:51;;;;;;;5.75;4.88;;;18.20;99.90;;;;;;4947412;28;20061;-72
2023/05/15 08:03:18;;;;;;;9.93;8.93;;;18.10;99.90;;;;;;4957909;28;20053;-72
2023/05/15 08:05:44;;;;;;;8.05;7.30;;;17.90;99.90;;;;;;4938542;28;20488;-72
2023/05/15 08:08:10;;;;;;;7.55;6.03;;;17.90;99.90;;;;;;4956454;28;20369;-72
2023/05/15 08:10:36;;;;;;;6.28;5.68;;;18.00;99.90;;;;;;4950742;28;20373;-71
2023/05/15 08:13:02;;;;;;;8.63;7.25;;;18.20;99.90;;;;;;4963968;28;20069;-72
2023/05/15 08:15:29;;;;;;;9.60;5.93;;;18.40;99.90;;;;;;4959950;28;20040;-71
2023/05/15 08:17:55;;;;;;;6.35;5.35;;;18.60;99.90;;;;;;4955882;28;20038;-71
2023/05/15 08:20:21;;;;;;;4.50;4.00;;;18.70;99.90;;;;;;4942114;28;20049;-71
2023/05/15 08:22:48;;;;;;;5.80;4.68;;;18.80;99.90;;;;;;4956218;28;20030;-72
2023/05/15 08:25:14;;;;;;;7.38;4.40;;;18.90;99.90;;;;;;4955064;28;21762;-72
2023/05/15 08:27:40;;;;;;;3.75;3.05;;;19.10;99.90;;;;;;4956626;28;20046;-71
2023/05/15 08:30:07;;;;;;;7.70;5.60;;;19.20;99.90;;;;;;4945247;28;20038;-71
2023/05/15 08:32:33;;;;;;;6.35;5.38;;;19.30;99.90;;;;;;4961990;28;20038;-72
2023/05/15 08:35:00;;;;;;;6.18;5.55;;;19.50;99.90;;;;;;4962763;28;21436;-72
2023/05/15 08:37:26;;;;;;;7.30;6.57;;;19.70;99.90;;;;;;4961508;28;20218;-72
2023/05/15 08:39:52;;;;;;;6.68;4.57;;;19.80;99.90;;;;;;4945356;28;20385;-72
2023/05/15 08:42:23;;;;;;;5.47;4.60;;;19.80;99.90;;;;;;4954955;28;20043;-72
2023/05/15 08:44:49;;;;;;;4.75;4.35;;;20.00;99.90;;;;;;4953756;28;20899;-71
2023/05/15 08:47:18;;;;;;;6.25;4.40;;;20.10;99.90;;;;;;4955709;28;20397;-72
2023/05/15 08:50:05;;;;;;;5.57;4.00;;;20.30;99.90;;;;;;4959253;28;20026;-71
2023/05/15 08:52:33;;;;;;;3.17;2.35;;;20.30;99.90;;;;;;4961082;28;20108;-72
2023/05/15 08:55:00;;;;;;;8.52;4.10;;;20.40;99.90;;;;;;4962038;28;20022;-71
2023/05/15 08:57:27;;;;;;;9.07;5.68;;;20.50;99.90;;;;;;4957755;28;20038;-72
2023/05/15 08:59:54;;;;;;;5.75;4.63;;;20.60;99.90;;;;;;4943645;28;20488;-72
2023/05/15 09:02:20;;;;;;;4.35;3.38;;;20.60;99.90;;;;;;4953621;28;20030;-71
2023/05/15 09:04:46;;;;;;;6.32;4.35;;;20.70;99.90;;;;;;4937899;28;20763;-72
2023/05/15 09:07:14;;;;;;;4.88;3.97;;;20.90;99.90;;;;;;4953174;28;20435;-72
2023/05/15 09:09:43;;;;;;;2.80;2.00;;;21.10;99.90;;;;;;4944409;28;20053;-71
2023/05/15 09:12:13;;;;;;;7.88;5.35;;;21.30;99.90;;;;;;4957046;28;20521;-72
2023/05/15 09:14:39;;;;;;;4.32;3.83;;;21.50;99.90;;;;;;4960672;28;20042;-72
2023/05/15 09:17:08;;;;;;;4.53;4.13;;;21.50;99.90;;;;;;4962262;28;20053;-71
2023/05/15 09:19:35;;;;;;;4.32;3.10;;;21.50;99.80;;;;;;4948203;28;20046;-71
2023/05/15 09:22:21;;;;;;;5.05;3.75;;;21.40;99.90;;;;;;4953126;28;20369;-72
2023/05/15 09:24:56;;;;;;;5.10;4.07;;;21.50;99.50;;;;;;4954657;28;20034;-72
2023/05/15 09:27:23;;;;;;;4.97;4.57;;;21.50;99.00;;;;;;4954337;28;20427;-72
2023/05/15 09:29:53;;;;;;;5.07;3.70;;;21.50;98.20;;;;;;4942408;28;20042;-71
2023/05/15 09:32:19;;;;;;;3.67;3.25;;;21.40;97.90;;;;;;4974397;28;20042;-71
2023/05/15 09:34:45;;;;;;;4.82;3.85;;;21.40;98.20;;;;;;4976442;28;20486;-71
2023/05/15 09:37:30;;;;;;;8.15;4.70;;;21.50;98.10;;;;;;4961828;28;20491;-71
2023/05/15 09:40:08;;;;;;;6.50;4.88;;;21.60;97.80;;;;;;4941782;28;20038;-72
2023/05/15 09:42:35;;;;;;;4.00;2.92;;;21.90;97.40;;;;;;4952669;28;20057;-72
2023/05/15 09:45:02;;;;;;;5.45;4.90;;;22.30;97.30;;;;;;4950873;28;20500;-72
2023/05/15 09:47:28;;;;;;;3.83;2.88;;;22.80;95.30;;;;;;4953037;28;20031;-72
2023/05/15 09:49:55;;;;;;;4.55;2.85;;;23.20;95.10;;;;;;4942812;28;20114;-71
2023/05/15 09:52:22;;;;;;;3.92;3.50;;;23.50;94.70;;;;;;4958328;28;20047;-72
2023/05/15 09:54:48;;;;;;;3.65;2.95;;;23.60;94.00;;;;;;4959375;28;20049;-72
2023/05/15 09:57:15;;;;;;;4.65;3.03;;;23.80;93.80;;;;;;4963428;28;20038;-73
2023/05/15 09:59:45;;;;;;;5.68;4.95;;;23.70;93.60;;;;;;4943565;28;20037;-72
2023/05/15 10:02:34;;;;;;;7.05;5.78;;;23.70;93.70;;;;;;4951112;28;20034;-72
2023/05/15 10:05:00;;;;;;;7.43;5.82;;;23.80;93.70;;;;;;4952573;28;20614;-73
2023/05/15 10:07:27;;;;;;;6.70;5.32;;;23.80;93.40;;;;;;4953001;28;20046;-72
2023/05/15 10:09:54;;;;;;;7.95;6.30;;;23.80;93.20;;;;;;4941381;28;20042;-73
2023/05/15 10:12:21;;;;;;;7.72;7.00;;;23.90;93.00;;;;;;4956937;28;20398;-77
2023/05/15 10:14:50;;;;;;;6.68;5.97;;;23.80;92.50;;;;;;4975686;28;20035;-73
2023/05/15 10:17:19;;;;;;;7.50;6.28;;;23.60;92.40;;;;;;4972899;28;20029;-75
2023/05/15 10:19:50;;;;;;;7.97;6.63;;;23.40;92.10;;;;;;4943247;28;22858;-73
2023/05/15 10:22:24;;;;;;;9.02;7.97;;;23.30;92.10;;;;;;4951849;28;20042;-75
2023/05/15 10:25:02;;;;;;;4.55;4.15;;;23.20;91.80;;;;;;4954419;28;20026;-77
2023/05/15 10:27:29;;;;;;;8.00;7.20;;;23.20;92.00;;;;;;4953895;28;21099;-77
2023/05/15 10:29:57;;;;;;;7.10;6.40;;;23.40;91.40;;;;;;4943748;28;20684;-75
2023/05/15 10:32:24;;;;;;;7.30;5.90;;;23.60;91.20;;;;;;4956532;28;20034;-73
2023/05/15 10:34:52;;;;;;;6.90;5.13;;;23.90;90.90;;;;;;4975978;28;20030;-74
2023/05/15 10:37:20;;;;;;;7.95;7.15;;;24.30;90.80;;;;;;4959109;28;20039;-77
2023/05/15 10:39:47;;;;;;;4.93;4.40;;;24.60;88.70;;;;;;4939607;28;21327;-74
2023/05/15 10:42:14;;;;;;;6.00;5.05;;;24.70;87.30;;;;;;4950934;28;20026;-76
2023/05/15 10:44:40;;;;;;;3.55;3.20;;;24.60;85.10;;;;;;4952579;28;20046;-78
2023/05/15 10:47:08;;;;;;;5.47;4.97;;;24.50;84.50;;;;;;4954367;28;20522;-76
2023/05/15 10:49:35;;;;;;;6.43;5.85;;;24.40;84.40;;;;;;4943474;28;20614;-73
2023/05/15 10:52:01;;;;;;;6.60;4.50;;;24.20;84.60;;;;;;4951991;28;20042;-73
2023/05/15 10:54:29;;;;;;;7.63;6.25;;;24.00;85.10;;;;;;4957587;28;20510;-73
2023/05/15 10:56:56;;;;;;;6.82;6.18;;;23.90;85.30;;;;;;4960129;28;20030;-73
2023/05/15 10:59:31;;;;;;;5.63;4.93;;;23.80;85.10;;;;;;4946027;28;20034;-73
2023/05/15 11:02:18;;;;;;;6.63;5.93;;;23.70;84.70;;;;;;4951280;28;20049;-74
2023/05/15 11:04:44;;;;;;;7.03;6.00;;;23.50;84.30;;;;;;4948770;28;20038;-70
2023/05/15 11:07:15;;;;;;;6.82;5.28;;;23.30;84.40;;;;;;4949047;28;20517;-71
2023/05/15 11:09:42;;;;;;;5.50;4.22;;;23.20;84.10;;;;;;4939515;28;20364;-71
2023/05/15 11:12:11;;;;;;;5.80;4.85;;;23.10;83.80;;;;;;4953457;28;20081;-71
2023/05/15 11:14:40;;;;;;;5.78;4.07;;;23.00;83.60;;;;;;4943964;28;20054;-74
2023/05/15 11:17:11;;;;;;;4.88;3.33;;;22.90;83.40;;;;;;4975064;28;20038;-73
2023/05/15 11:19:47;;;;;;;5.65;4.20;;;22.80;83.40;;;;;;4948776;28;20373;-73
2023/05/15 11:22:14;;;;;;;6.30;4.80;;;22.80;83.50;;;;;;4951049;28;20546;-73
2023/05/15 11:24:57;;;;;;;4.85;4.45;;;22.80;83.20;;;;;;4951154;28;20049;-71
2023/05/15 11:27:27;;;;;;;5.80;5.30;;;22.70;83.90;;;;;;4936886;28;20093;-73
2023/05/15 11:30:12;;;;;;;7.22;5.53;;;22.70;84.90;;;;;;4912472;28;20041;-73
2023/05/15 11:32:45;;;;;;;6.93;6.32;;;22.50;85.10;;;;;;4949483;28;20077;-73
2023/05/15 11:35:22;;;;;;;8.82;6.63;;;22.60;86.20;;;;;;4960112;28;20043;-73
2023/05/15 11:37:50;;;;;;;6.65;5.95;;;22.60;86.70;;;;;;4963564;28;20481;-73
2023/05/15 11:40:24;;;;;;;5.88;5.28;;;22.70;87.10;;;;;;4952009;28;20049;-73
2023/05/15 11:43:07;;;;;;;9.02;8.13;;;22.80;87.40;;;;;;4959263;28;20061;-73
2023/05/15 11:45:38;;;;;;;6.10;5.45;;;22.70;86.90;;;;;;4956053;28;20037;-73
2023/05/15 11:48:07;;;;;;;7.57;6.60;;;22.70;87.30;;;;;;4957383;28;20042;-73
2023/05/15 11:50:34;;;;;;;6.60;5.95;;;22.80;87.70;;;;;;4942730;28;20018;-73
2023/05/15 11:53:05;;;;;;;8.82;6.88;;;22.80;88.00;;;;;;4955098;28;20034;-73
2023/05/15 11:55:43;;;;;;;7.60;6.85;;;22.70;87.70;;;;;;4961805;28;20059;-74
2023/05/15 11:58:17;;;;;;;8.55;7.70;;;22.70;87.30;;;;;;4964446;28;20033;-73
2023/05/15 12:00:46;;;;;;;11.65;9.98;;;22.60;87.80;;;;;;4949044;28;20041;-73
2023/05/15 12:03:14;;;;;;;13.05;11.82;;;22.50;88.50;;;;;;4956854;28;20046;-73
2023/05/15 12:05:41;;;;;;;11.43;10.32;;;22.40;89.40;;;;;;4939530;28;21389;-73
2023/05/15 12:08:10;;;;;;;13.77;10.48;;;22.40;90.10;;;;;;4955864;28;20401;-73
2023/05/15 12:10:43;;;;;;;11.98;10.77;;;22.40;90.30;;;;;;4943946;28;20064;-73
2023/05/15 12:13:10;;;;;;;16.85;15.13;;;22.50;90.60;;;;;;4954618;28;20046;-74
2023/05/15 12:15:38;;;;;;;16.25;14.60;;;22.50;90.40;;;;;;4961135;28;20061;-73
2023/05/15 12:18:08;;;;;;;15.93;14.25;;;22.40;90.30;;;;;;4964127;28;20042;-73
2023/05/15 12:20:37;;;;;;;18.27;15.20;;;22.20;90.50;;;;;;4951845;28;20987;-73
2023/05/15 12:23:04;;;;;;;13.60;12.13;;;22.10;90.70;;;;;;4957136;28;20451;-73
2023/05/15 12:25:32;;;;;;;18.73;16.83;;;22.00;91.10;;;;;;4957283;28;20045;-73
2023/05/15 12:28:00;;;;;;;15.88;13.52;;;22.00;91.20;;;;;;4954189;28;20494;-73
2023/05/15 12:30:28;;;;;;;17.20;15.40;;;21.90;91.30;;;;;;4947592;28;20042;-73
2023/05/15 12:33:02;;;;;;;15.52;14.02;;;21.80;91.90;;;;;;4956660;28;20034;-73
2023/05/15 12:35:28;;;;;;;15.13;13.38;;;21.80;91.80;;;;;;4959424;28;20034;-73
2023/05/15 12:37:55;;;;;;;16.42;14.63;;;22.00;92.10;;;;;;4961790;28;20053;-73
2023/05/15 12:40:22;;;;;;;19.98;17.92;;;22.10;92.00;;;;;;4940339;28;20045;-73